Palermo, New York
Current Conditions -  °F | °C
As of 5:54 AM on Monday 20 Oct 2014 (Local Time) from KFZY Reporting Station
Overcast Overcast  
Wind Chill: 36°   Ceiling: 12000
Heat Index: 41°   Visibility: 10mi
Dew Point: 35°   Wind: 8mph
Humidity: 79%   Direction: 180°S
Pressure: 29.98"   Gusts: NA
Location:  43.3608°N, 76.3536°W
Report Text: KFZY 200954Z AUTO 18007KT 10SM SCT100 OVC120 05/02 A2998 RMK AO2 SLP155 T00500017
Loading
Personal Weather Stations






























Interactive Weather Map
Tropical Storm Tracking
New forecast layout! Learn more

10-Day Weather Forecast

Advertisements
Track Severe Weather on mobile